sensor_id;sensor_type;location;lat;lon;timestamp;noise_LAeq;noise_LA_min;noise_LA_max;noise_LA01;noise_LA95
65079;Laerm;52655;52.218;5.964;2023-02-03T00:01:52;42.6;32.5;59.6;;
65079;Laerm;52655;52.218;5.964;2023-02-03T00:03:51;34.9;31.8;43.7;;
65079;Laerm;52655;52.218;5.964;2023-02-03T00:05:51;40.6;32.7;60.1;;
65079;Laerm;52655;52.218;5.964;2023-02-03T00:07:52;36.3;31.7;48.3;;
65079;Laerm;52655;52.218;5.964;2023-02-03T00:09:52;41.1;32.1;56.9;;
65079;Laerm;52655;52.218;5.964;2023-02-03T00:11:52;39.0;32.3;53.7;;
65079;Laerm;52655;52.218;5.964;2023-02-03T00:13:52;34.0;30.9;43.8;;
65079;Laerm;52655;52.218;5.964;2023-02-03T00:15:52;34.6;31.1;51.1;;
65079;Laerm;52655;52.218;5.964;2023-02-03T00:17:52;34.9;32.1;45.6;;
65079;Laerm;52655;52.218;5.964;2023-02-03T00:19:53;38.7;31.8;55.8;;
65079;Laerm;52655;52.218;5.964;2023-02-03T00:21:52;38.0;32.4;48.9;;
65079;Laerm;52655;52.218;5.964;2023-02-03T00:23:52;38.2;31.8;56.0;;
65079;Laerm;52655;52.218;5.964;2023-02-03T00:25:52;34.4;31.3;42.8;;
65079;Laerm;52655;52.218;5.964;2023-02-03T00:27:52;33.9;31.5;43.6;;
65079;Laerm;52655;52.218;5.964;2023-02-03T00:29:52;37.1;31.1;53.0;;
65079;Laerm;52655;52.218;5.964;2023-02-03T00:31:52;34.3;31.2;53.8;;
65079;Laerm;52655;52.218;5.964;2023-02-03T00:33:52;39.3;31.3;62.0;;
65079;Laerm;52655;52.218;5.964;2023-02-03T00:35:52;34.9;30.5;44.1;;
65079;Laerm;52655;52.218;5.964;2023-02-03T00:37:53;37.3;31.3;54.5;;
65079;Laerm;52655;52.218;5.964;2023-02-03T00:39:52;36.2;31.3;53.8;;
65079;Laerm;52655;52.218;5.964;2023-02-03T00:41:52;34.6;31.1;46.5;;
65079;Laerm;52655;52.218;5.964;2023-02-03T00:43:53;39.8;32.7;53.0;;
65079;Laerm;52655;52.218;5.964;2023-02-03T00:45:53;38.7;32.4;53.0;;
65079;Laerm;52655;52.218;5.964;2023-02-03T00:47:53;36.8;32.0;56.0;;
65079;Laerm;52655;52.218;5.964;2023-02-03T00:49:53;39.9;32.3;57.4;;
65079;Laerm;52655;52.218;5.964;2023-02-03T00:51:53;40.7;31.6;62.8;;
65079;Laerm;52655;52.218;5.964;2023-02-03T00:53:53;39.9;31.8;56.2;;
65079;Laerm;52655;52.218;5.964;2023-02-03T00:55:53;37.5;32.4;46.9;;
65079;Laerm;52655;52.218;5.964;2023-02-03T00:57:53;35.5;31.7;47.2;;
65079;Laerm;52655;52.218;5.964;2023-02-03T00:59:53;35.1;31.1;44.2;;
65079;Laerm;52655;52.218;5.964;2023-02-03T01:01:53;37.9;31.3;56.0;;
65079;Laerm;52655;52.218;5.964;2023-02-03T01:03:53;39.1;31.6;55.3;;
65079;Laerm;52655;52.218;5.964;2023-02-03T01:05:53;35.1;31.8;45.8;;
65079;Laerm;52655;52.218;5.964;2023-02-03T01:07:53;33.3;30.9;46.7;;
65079;Laerm;52655;52.218;5.964;2023-02-03T01:09:53;34.1;30.8;43.9;;
65079;Laerm;52655;52.218;5.964;2023-02-03T01:11:53;33.2;30.6;43.5;;
65079;Laerm;52655;52.218;5.964;2023-02-03T01:13:54;46.2;31.2;72.4;;
65079;Laerm;52655;52.218;5.964;2023-02-03T01:15:54;39.0;31.9;55.8;;
65079;Laerm;52655;52.218;5.964;2023-02-03T01:17:54;34.6;31.6;42.7;;
65079;Laerm;52655;52.218;5.964;2023-02-03T01:19:54;36.1;31.6;50.5;;
65079;Laerm;52655;52.218;5.964;2023-02-03T01:21:54;36.1;31.8;43.8;;
65079;Laerm;52655;52.218;5.964;2023-02-03T01:23:54;36.3;31.9;54.6;;
65079;Laerm;52655;52.218;5.964;2023-02-03T01:25:54;47.7;31.9;74.2;;
65079;Laerm;52655;52.218;5.964;2023-02-03T01:27:54;38.2;31.4;56.9;;
65079;Laerm;52655;52.218;5.964;2023-02-03T01:29:54;39.5;31.5;57.5;;
65079;Laerm;52655;52.218;5.964;2023-02-03T01:31:54;35.1;31.6;53.7;;
65079;Laerm;52655;52.218;5.964;2023-02-03T01:33:54;35.4;31.6;46.4;;
65079;Laerm;52655;52.218;5.964;2023-02-03T01:35:54;37.8;32.1;61.6;;
65079;Laerm;52655;52.218;5.964;2023-02-03T01:37:54;39.1;31.3;55.2;;
65079;Laerm;52655;52.218;5.964;2023-02-03T01:39:54;35.9;32.1;46.4;;
65079;Laerm;52655;52.218;5.964;2023-02-03T01:41:54;39.2;31.2;54.8;;
65079;Laerm;52655;52.218;5.964;2023-02-03T01:43:56;33.8;30.9;40.6;;
65079;Laerm;52655;52.218;5.964;2023-02-03T01:45:54;38.7;31.1;57.4;;
65079;Laerm;52655;52.218;5.964;2023-02-03T01:47:58;36.8;31.9;46.2;;
65079;Laerm;52655;52.218;5.964;2023-02-03T01:49:55;33.1;31.1;44.2;;
65079;Laerm;52655;52.218;5.964;2023-02-03T01:51:54;35.7;31.4;44.3;;
65079;Laerm;52655;52.218;5.964;2023-02-03T01:53:55;39.9;32.5;52.5;;
65079;Laerm;52655;52.218;5.964;2023-02-03T01:55:55;37.3;31.0;47.6;;
65079;Laerm;52655;52.218;5.964;2023-02-03T01:58:07;39.0;32.6;51.2;;
65079;Laerm;52655;52.218;5.964;2023-02-03T02:01:55;36.8;31.4;53.8;;
65079;Laerm;52655;52.218;5.964;2023-02-03T02:04:01;37.3;33.1;44.5;;
65079;Laerm;52655;52.218;5.964;2023-02-03T02:06:01;41.8;34.2;59.8;;
65079;Laerm;52655;52.218;5.964;2023-02-03T02:07:59;38.6;32.5;48.8;;
65079;Laerm;52655;52.218;5.964;2023-02-03T02:09:55;40.9;32.9;59.5;;
65079;Laerm;52655;52.218;5.964;2023-02-03T02:11:55;43.3;33.3;72.2;;
65079;Laerm;52655;52.218;5.964;2023-02-03T02:13:56;34.7;31.0;41.3;;
65079;Laerm;52655;52.218;5.964;2023-02-03T02:15:57;33.2;31.3;44.4;;
65079;Laerm;52655;52.218;5.964;2023-02-03T02:18:39;37.9;30.9;54.0;;
65079;Laerm;52655;52.218;5.964;2023-02-03T02:21:35;33.8;31.1;42.5;;
65079;Laerm;52655;52.218;5.964;2023-02-03T02:24:16;32.6;30.0;41.8;;
65079;Laerm;52655;52.218;5.964;2023-02-03T02:27:08;33.2;31.3;38.2;;
65079;Laerm;52655;52.218;5.964;2023-02-03T02:29:49;44.5;31.6;70.2;;
65079;Laerm;52655;52.218;5.964;2023-02-03T02:32:45;37.1;32.4;50.8;;
65079;Laerm;52655;52.218;5.964;2023-02-03T02:34:31;35.2;30.9;49.5;;
65079;Laerm;52655;52.218;5.964;2023-02-03T02:36:23;33.6;30.8;48.5;;
65079;Laerm;52655;52.218;5.964;2023-02-03T02:38:22;38.6;32.4;54.6;;
65079;Laerm;52655;52.218;5.964;2023-02-03T02:40:08;39.2;31.7;58.4;;
65079;Laerm;52655;52.218;5.964;2023-02-03T02:41:44;34.7;31.3;46.1;;
65079;Laerm;52655;52.218;5.964;2023-02-03T02:43:28;42.5;32.0;68.5;;
65079;Laerm;52655;52.218;5.964;2023-02-03T02:44:38;34.7;30.8;48.9;;
65079;Laerm;52655;52.218;5.964;2023-02-03T02:46:10;36.4;30.9;52.7;;
65079;Laerm;52655;52.218;5.964;2023-02-03T02:47:18;43.2;32.0;60.9;;
65079;Laerm;52655;52.218;5.964;2023-02-03T02:48:00;37.5;31.6;53.1;;
65079;Laerm;52655;52.218;5.964;2023-02-03T02:50:00;35.8;31.6;46.2;;
65079;Laerm;52655;52.218;5.964;2023-02-03T02:51:56;40.9;32.3;57.8;;
65079;Laerm;52655;52.218;5.964;2023-02-03T02:53:58;38.4;33.0;49.7;;
65079;Laerm;52655;52.218;5.964;2023-02-03T02:55:56;37.8;31.2;46.6;;
65079;Laerm;52655;52.218;5.964;2023-02-03T02:58:07;35.7;31.5;45.5;;
65079;Laerm;52655;52.218;5.964;2023-02-03T02:59:56;34.7;31.1;46.2;;
65079;Laerm;52655;52.218;5.964;2023-02-03T03:01:56;44.4;31.5;74.3;;
65079;Laerm;52655;52.218;5.964;2023-02-03T03:03:57;45.8;31.0;75.4;;
65079;Laerm;52655;52.218;5.964;2023-02-03T03:05:58;38.5;30.6;56.5;;
65079;Laerm;52655;52.218;5.964;2023-02-03T03:08:00;38.0;31.3;54.1;;
65079;Laerm;52655;52.218;5.964;2023-02-03T03:09:58;37.3;31.3;55.2;;
65079;Laerm;52655;52.218;5.964;2023-02-03T03:11:58;34.7;31.5;42.9;;
65079;Laerm;52655;52.218;5.964;2023-02-03T03:13:57;37.0;31.3;51.6;;
65079;Laerm;52655;52.218;5.964;2023-02-03T03:15:58;35.5;31.2;44.8;;
65079;Laerm;52655;52.218;5.964;2023-02-03T03:18:12;40.0;31.0;65.3;;
65079;Laerm;52655;52.218;5.964;2023-02-03T03:20:04;39.8;31.6;57.6;;
65079;Laerm;52655;52.218;5.964;2023-02-03T03:21:58;41.2;32.3;56.5;;
65079;Laerm;52655;52.218;5.964;2023-02-03T03:23:58;40.7;32.0;56.8;;
65079;Laerm;52655;52.218;5.964;2023-02-03T03:26:01;39.1;32.1;64.8;;
65079;Laerm;52655;52.218;5.964;2023-02-03T03:28:05;35.5;31.5;43.5;;
65079;Laerm;52655;52.218;5.964;2023-02-03T03:29:58;35.6;31.9;49.1;;
65079;Laerm;52655;52.218;5.964;2023-02-03T03:31:57;35.4;31.8;48.0;;
65079;Laerm;52655;52.218;5.964;2023-02-03T03:33:57;36.8;31.5;49.8;;
65079;Laerm;52655;52.218;5.964;2023-02-03T03:35:58;36.5;31.6;48.9;;
65079;Laerm;52655;52.218;5.964;2023-02-03T03:38:06;33.6;31.1;42.2;;
65079;Laerm;52655;52.218;5.964;2023-02-03T03:39:59;37.9;31.2;53.2;;
65079;Laerm;52655;52.218;5.964;2023-02-03T03:42:00;34.9;31.8;51.5;;
65079;Laerm;52655;52.218;5.964;2023-02-03T03:43:58;35.8;32.6;50.4;;
65079;Laerm;52655;52.218;5.964;2023-02-03T03:46:03;39.2;34.1;55.5;;
65079;Laerm;52655;52.218;5.964;2023-02-03T03:47:59;41.8;33.8;58.6;;
65079;Laerm;52655;52.218;5.964;2023-02-03T03:49:58;40.2;32.2;67.5;;
65079;Laerm;52655;52.218;5.964;2023-02-03T03:51:59;40.5;32.0;58.0;;
65079;Laerm;52655;52.218;5.964;2023-02-03T03:53:59;35.2;32.7;44.4;;
65079;Laerm;52655;52.218;5.964;2023-02-03T03:55:58;39.3;33.7;55.7;;
65079;Laerm;52655;52.218;5.964;2023-02-03T03:58:43;38.1;32.6;51.0;;
65079;Laerm;52655;52.218;5.964;2023-02-03T04:00:21;43.8;35.1;67.1;;
65079;Laerm;52655;52.218;5.964;2023-02-03T04:02:00;41.0;34.6;52.0;;
65079;Laerm;52655;52.218;5.964;2023-02-03T04:03:59;44.9;37.1;61.2;;
65079;Laerm;52655;52.218;5.964;2023-02-03T04:05:58;39.4;33.2;52.4;;
65079;Laerm;52655;52.218;5.964;2023-02-03T04:07:58;45.8;34.8;58.4;;
65079;Laerm;52655;52.218;5.964;2023-02-03T04:09:58;43.8;34.8;57.7;;
65079;Laerm;52655;52.218;5.964;2023-02-03T04:11:58;40.6;34.6;56.3;;
65079;Laerm;52655;52.218;5.964;2023-02-03T04:13:58;41.3;34.9;55.7;;
65079;Laerm;52655;52.218;5.964;2023-02-03T04:15:58;43.4;35.8;60.3;;
65079;Laerm;52655;52.218;5.964;2023-02-03T04:17:59;47.1;36.6;68.1;;
65079;Laerm;52655;52.218;5.964;2023-02-03T04:19:59;45.3;34.7;66.9;;
65079;Laerm;52655;52.218;5.964;2023-02-03T04:21:59;38.4;34.4;52.5;;
65079;Laerm;52655;52.218;5.964;2023-02-03T04:23:59;41.7;36.1;64.6;;
65079;Laerm;52655;52.218;5.964;2023-02-03T04:25:59;42.7;37.4;59.8;;
65079;Laerm;52655;52.218;5.964;2023-02-03T04:27:59;42.7;37.1;57.5;;
65079;Laerm;52655;52.218;5.964;2023-02-03T04:29:59;44.6;37.1;60.5;;
65079;Laerm;52655;52.218;5.964;2023-02-03T04:31:59;49.5;36.5;65.2;;
65079;Laerm;52655;52.218;5.964;2023-02-03T04:33:59;41.7;36.5;51.6;;
65079;Laerm;52655;52.218;5.964;2023-02-03T04:35:59;44.3;37.0;62.1;;
65079;Laerm;52655;52.218;5.964;2023-02-03T04:37:59;43.3;36.8;55.2;;
65079;Laerm;52655;52.218;5.964;2023-02-03T04:39:59;41.2;36.6;55.7;;
65079;Laerm;52655;52.218;5.964;2023-02-03T04:41:59;42.4;35.9;59.4;;
65079;Laerm;52655;52.218;5.964;2023-02-03T04:43:59;41.1;35.7;55.7;;
65079;Laerm;52655;52.218;5.964;2023-02-03T04:45:59;40.6;36.0;51.1;;
65079;Laerm;52655;52.218;5.964;2023-02-03T04:47:59;42.4;36.6;61.7;;
65079;Laerm;52655;52.218;5.964;2023-02-03T04:49:59;49.3;36.9;68.0;;
65079;Laerm;52655;52.218;5.964;2023-02-03T04:51:59;45.3;39.0;59.8;;
65079;Laerm;52655;52.218;5.964;2023-02-03T04:54:00;43.8;36.5;57.9;;
65079;Laerm;52655;52.218;5.964;2023-02-03T04:56:01;42.7;36.2;58.8;;
65079;Laerm;52655;52.218;5.964;2023-02-03T04:58:00;39.2;36.3;46.3;;
65079;Laerm;52655;52.218;5.964;2023-02-03T05:00:00;42.0;37.1;54.1;;
65079;Laerm;52655;52.218;5.964;2023-02-03T05:02:00;44.1;38.1;51.9;;
65079;Laerm;52655;52.218;5.964;2023-02-03T05:04:00;44.4;38.6;56.3;;
65079;Laerm;52655;52.218;5.964;2023-02-03T05:06:00;44.1;38.2;55.3;;
65079;Laerm;52655;52.218;5.964;2023-02-03T05:08:00;47.4;37.5;75.1;;
65079;Laerm;52655;52.218;5.964;2023-02-03T05:10:00;47.6;37.6;73.0;;
65079;Laerm;52655;52.218;5.964;2023-02-03T05:12:00;49.0;39.3;67.3;;
65079;Laerm;52655;52.218;5.964;2023-02-03T05:14:00;44.3;36.8;59.3;;
65079;Laerm;52655;52.218;5.964;2023-02-03T05:16:00;41.7;36.2;56.5;;
65079;Laerm;52655;52.218;5.964;2023-02-03T05:18:00;41.9;36.8;56.0;;
65079;Laerm;52655;52.218;5.964;2023-02-03T05:20:00;40.8;36.6;55.3;;
65079;Laerm;52655;52.218;5.964;2023-02-03T05:22:00;45.5;37.6;56.5;;
65079;Laerm;52655;52.218;5.964;2023-02-03T05:24:00;47.1;38.9;63.8;;
65079;Laerm;52655;52.218;5.964;2023-02-03T05:26:00;50.5;40.4;61.5;;
65079;Laerm;52655;52.218;5.964;2023-02-03T05:28:01;46.9;38.7;57.3;;
65079;Laerm;52655;52.218;5.964;2023-02-03T05:30:01;42.4;37.7;53.7;;
65079;Laerm;52655;52.218;5.964;2023-02-03T05:32:01;43.9;38.3;56.5;;
65079;Laerm;52655;52.218;5.964;2023-02-03T05:34:01;41.6;36.7;57.5;;
65079;Laerm;52655;52.218;5.964;2023-02-03T05:36:01;45.9;39.2;56.6;;
65079;Laerm;52655;52.218;5.964;2023-02-03T05:38:01;45.9;39.0;57.3;;
65079;Laerm;52655;52.218;5.964;2023-02-03T05:40:01;47.6;39.7;59.4;;
65079;Laerm;52655;52.218;5.964;2023-02-03T05:42:01;46.1;40.3;56.3;;
65079;Laerm;52655;52.218;5.964;2023-02-03T05:44:01;45.5;38.6;59.6;;
65079;Laerm;52655;52.218;5.964;2023-02-03T05:46:01;46.7;39.1;64.8;;
65079;Laerm;52655;52.218;5.964;2023-02-03T05:48:01;44.2;37.6;55.7;;
65079;Laerm;52655;52.218;5.964;2023-02-03T05:50:01;48.3;39.8;62.7;;
65079;Laerm;52655;52.218;5.964;2023-02-03T05:52:01;47.6;39.8;59.5;;
65079;Laerm;52655;52.218;5.964;2023-02-03T05:54:01;47.4;39.2;61.2;;
65079;Laerm;52655;52.218;5.964;2023-02-03T05:56:01;44.7;38.8;59.3;;
65079;Laerm;52655;52.218;5.964;2023-02-03T05:58:02;45.2;39.0;56.7;;
65079;Laerm;52655;52.218;5.964;2023-02-03T06:00:01;48.4;40.9;68.2;;
65079;Laerm;52655;52.218;5.964;2023-02-03T06:02:01;49.2;43.5;58.3;;
65079;Laerm;52655;52.218;5.964;2023-02-03T06:04:02;43.4;39.3;56.5;;
65079;Laerm;52655;52.218;5.964;2023-02-03T06:06:03;45.9;40.0;62.9;;
65079;Laerm;52655;52.218;5.964;2023-02-03T06:08:02;47.3;41.2;56.3;;
65079;Laerm;52655;52.218;5.964;2023-02-03T06:10:02;47.4;40.6;62.9;;
65079;Laerm;52655;52.218;5.964;2023-02-03T06:12:02;46.5;40.0;57.9;;
65079;Laerm;52655;52.218;5.964;2023-02-03T06:14:02;46.8;41.0;58.7;;
65079;Laerm;52655;52.218;5.964;2023-02-03T06:16:02;45.9;39.1;65.4;;
65079;Laerm;52655;52.218;5.964;2023-02-03T06:18:02;48.5;40.8;72.2;;
65079;Laerm;52655;52.218;5.964;2023-02-03T06:20:02;49.4;42.5;65.9;;
65079;Laerm;52655;52.218;5.964;2023-02-03T06:22:02;47.3;40.0;62.9;;
65079;Laerm;52655;52.218;5.964;2023-02-03T06:24:02;48.0;42.1;61.7;;
65079;Laerm;52655;52.218;5.964;2023-02-03T06:26:02;46.5;40.8;56.9;;
65079;Laerm;52655;52.218;5.964;2023-02-03T06:28:02;44.4;40.1;56.0;;
65079;Laerm;52655;52.218;5.964;2023-02-03T06:30:02;48.4;42.2;65.9;;
65079;Laerm;52655;52.218;5.964;2023-02-03T06:32:03;45.8;39.8;57.5;;
65079;Laerm;52655;52.218;5.964;2023-02-03T06:34:02;47.5;40.4;65.0;;
65079;Laerm;52655;52.218;5.964;2023-02-03T06:36:03;49.3;41.7;72.0;;
65079;Laerm;52655;52.218;5.964;2023-02-03T06:38:02;45.2;40.2;58.6;;
65079;Laerm;52655;52.218;5.964;2023-02-03T06:40:03;48.4;42.5;56.8;;
65079;Laerm;52655;52.218;5.964;2023-02-03T06:42:03;47.1;41.2;57.6;;
65079;Laerm;52655;52.218;5.964;2023-02-03T06:44:03;47.1;40.9;59.1;;
65079;Laerm;52655;52.218;5.964;2023-02-03T06:46:03;46.1;40.8;55.8;;
65079;Laerm;52655;52.218;5.964;2023-02-03T06:48:04;46.7;40.8;59.0;;
65079;Laerm;52655;52.218;5.964;2023-02-03T06:50:03;48.8;41.3;60.9;;
65079;Laerm;52655;52.218;5.964;2023-02-03T06:52:03;47.7;43.1;59.3;;
65079;Laerm;52655;52.218;5.964;2023-02-03T06:54:03;46.8;42.6;57.4;;
65079;Laerm;52655;52.218;5.964;2023-02-03T06:56:03;46.9;41.2;59.0;;
65079;Laerm;52655;52.218;5.964;2023-02-03T06:58:03;50.0;40.9;59.6;;
65079;Laerm;52655;52.218;5.964;2023-02-03T07:00:03;47.8;41.2;59.0;;
65079;Laerm;52655;52.218;5.964;2023-02-03T07:02:03;47.6;41.3;57.3;;
65079;Laerm;52655;52.218;5.964;2023-02-03T07:04:03;51.2;42.4;59.4;;
65079;Laerm;52655;52.218;5.964;2023-02-03T07:06:03;48.3;42.3;57.1;;
65079;Laerm;52655;52.218;5.964;2023-02-03T07:08:03;48.2;41.8;58.7;;
65079;Laerm;52655;52.218;5.964;2023-02-03T07:10:04;47.4;42.2;61.5;;
65079;Laerm;52655;52.218;5.964;2023-02-03T07:12:03;49.0;42.7;57.5;;
65079;Laerm;52655;52.218;5.964;2023-02-03T07:14:04;51.3;46.2;59.3;;
65079;Laerm;52655;52.218;5.964;2023-02-03T07:16:03;49.2;42.6;63.2;;
65079;Laerm;52655;52.218;5.964;2023-02-03T07:18:03;49.9;44.7;60.7;;
65079;Laerm;52655;52.218;5.964;2023-02-03T07:20:04;51.1;44.3;69.4;;
65079;Laerm;52655;52.218;5.964;2023-02-03T07:22:04;48.3;42.1;61.3;;
65079;Laerm;52655;52.218;5.964;2023-02-03T07:24:04;50.5;43.3;63.8;;
65079;Laerm;52655;52.218;5.964;2023-02-03T07:26:04;48.4;42.2;57.7;;
65079;Laerm;52655;52.218;5.964;2023-02-03T07:28:04;48.4;43.3;57.4;;
65079;Laerm;52655;52.218;5.964;2023-02-03T07:30:04;49.7;43.5;58.4;;
65079;Laerm;52655;52.218;5.964;2023-02-03T07:32:04;48.0;41.5;57.9;;
65079;Laerm;52655;52.218;5.964;2023-02-03T07:34:04;49.8;42.7;63.3;;
65079;Laerm;52655;52.218;5.964;2023-02-03T07:36:05;54.6;44.5;76.2;;
65079;Laerm;52655;52.218;5.964;2023-02-03T07:38:04;49.5;43.7;62.4;;
65079;Laerm;52655;52.218;5.964;2023-02-03T07:40:04;49.7;43.2;64.6;;
65079;Laerm;52655;52.218;5.964;2023-02-03T07:42:04;50.0;42.8;57.4;;
65079;Laerm;52655;52.218;5.964;2023-02-03T07:44:04;48.5;41.9;58.8;;
65079;Laerm;52655;52.218;5.964;2023-02-03T07:46:04;49.6;42.5;58.4;;
65079;Laerm;52655;52.218;5.964;2023-02-03T07:48:04;48.9;44.0;59.8;;
65079;Laerm;52655;52.218;5.964;2023-02-03T07:50:05;49.8;43.3;72.3;;
65079;Laerm;52655;52.218;5.964;2023-02-03T07:52:05;50.2;42.1;63.8;;
65079;Laerm;52655;52.218;5.964;2023-02-03T07:54:05;48.3;42.0;57.1;;
65079;Laerm;52655;52.218;5.964;2023-02-03T07:56:05;52.7;42.6;62.2;;
65079;Laerm;52655;52.218;5.964;2023-02-03T07:58:05;50.5;42.3;68.9;;
65079;Laerm;52655;52.218;5.964;2023-02-03T08:00:05;51.0;42.0;71.3;;
65079;Laerm;52655;52.218;5.964;2023-02-03T08:02:05;49.4;43.5;60.3;;
65079;Laerm;52655;52.218;5.964;2023-02-03T08:04:05;52.7;45.6;64.1;;
65079;Laerm;52655;52.218;5.964;2023-02-03T08:06:05;49.2;42.8;63.0;;
65079;Laerm;52655;52.218;5.964;2023-02-03T08:08:05;48.3;41.2;57.9;;
65079;Laerm;52655;52.218;5.964;2023-02-03T08:10:05;46.4;41.8;57.3;;
65079;Laerm;52655;52.218;5.964;2023-02-03T08:12:05;48.8;42.0;63.1;;
65079;Laerm;52655;52.218;5.964;2023-02-03T08:14:05;46.6;42.3;55.6;;
65079;Laerm;52655;52.218;5.964;2023-02-03T08:16:05;48.8;42.2;64.2;;
65079;Laerm;52655;52.218;5.964;2023-02-03T08:18:05;48.2;42.4;55.1;;
65079;Laerm;52655;52.218;5.964;2023-02-03T08:20:06;49.7;43.1;63.7;;
65079;Laerm;52655;52.218;5.964;2023-02-03T08:22:05;51.1;43.8;61.2;;
65079;Laerm;52655;52.218;5.964;2023-02-03T08:24:05;49.4;41.5;63.0;;
65079;Laerm;52655;52.218;5.964;2023-02-03T08:26:05;48.6;42.1;61.3;;
65079;Laerm;52655;52.218;5.964;2023-02-03T08:28:06;48.8;41.8;59.3;;
65079;Laerm;52655;52.218;5.964;2023-02-03T08:30:06;50.0;42.7;63.0;;
65079;Laerm;52655;52.218;5.964;2023-02-03T08:32:07;50.4;41.2;64.0;;
65079;Laerm;52655;52.218;5.964;2023-02-03T08:34:06;52.0;41.4;63.0;;
65079;Laerm;52655;52.218;5.964;2023-02-03T08:36:06;51.4;42.8;68.8;;
65079;Laerm;52655;52.218;5.964;2023-02-03T08:38:06;51.2;44.0;68.5;;
65079;Laerm;52655;52.218;5.964;2023-02-03T08:40:06;54.8;45.0;67.0;;
65079;Laerm;52655;52.218;5.964;2023-02-03T08:42:06;48.1;42.6;57.3;;
65079;Laerm;52655;52.218;5.964;2023-02-03T08:44:06;48.7;42.9;61.0;;
65079;Laerm;52655;52.218;5.964;2023-02-03T08:46:07;50.2;42.3;65.5;;
65079;Laerm;52655;52.218;5.964;2023-02-03T08:48:06;51.5;41.3;75.9;;
65079;Laerm;52655;52.218;5.964;2023-02-03T08:50:07;49.6;43.0;65.3;;
65079;Laerm;52655;52.218;5.964;2023-02-03T08:52:06;49.6;42.4;62.1;;
65079;Laerm;52655;52.218;5.964;2023-02-03T08:54:06;49.2;42.9;62.7;;
65079;Laerm;52655;52.218;5.964;2023-02-03T08:56:07;50.5;44.3;61.2;;
65079;Laerm;52655;52.218;5.964;2023-02-03T08:58:06;48.4;42.7;60.2;;
65079;Laerm;52655;52.218;5.964;2023-02-03T09:00:08;48.9;40.5;67.0;;
65079;Laerm;52655;52.218;5.964;2023-02-03T09:02:10;53.5;43.9;71.0;;
65079;Laerm;52655;52.218;5.964;2023-02-03T09:04:06;49.1;42.9;60.7;;
65079;Laerm;52655;52.218;5.964;2023-02-03T09:06:07;49.0;43.8;65.6;;
65079;Laerm;52655;52.218;5.964;2023-02-03T09:08:07;51.5;42.7;64.9;;
65079;Laerm;52655;52.218;5.964;2023-02-03T09:10:07;48.1;41.5;60.4;;
65079;Laerm;52655;52.218;5.964;2023-02-03T09:12:07;47.6;41.2;60.8;;
65079;Laerm;52655;52.218;5.964;2023-02-03T09:14:07;48.9;42.9;61.1;;
65079;Laerm;52655;52.218;5.964;2023-02-03T09:16:07;49.7;42.8;64.2;;
65079;Laerm;52655;52.218;5.964;2023-02-03T09:18:07;48.9;43.1;57.8;;
65079;Laerm;52655;52.218;5.964;2023-02-03T09:20:07;47.5;42.4;59.5;;
65079;Laerm;52655;52.218;5.964;2023-02-03T09:22:07;48.0;43.0;59.0;;
65079;Laerm;52655;52.218;5.964;2023-02-03T09:24:07;48.3;41.9;58.4;;
65079;Laerm;52655;52.218;5.964;2023-02-03T09:26:08;47.8;42.9;58.7;;
65079;Laerm;52655;52.218;5.964;2023-02-03T09:28:07;50.1;43.9;61.8;;
65079;Laerm;52655;52.218;5.964;2023-02-03T09:30:08;52.3;43.7;71.3;;
65079;Laerm;52655;52.218;5.964;2023-02-03T09:32:07;51.0;43.2;61.8;;
65079;Laerm;52655;52.218;5.964;2023-02-03T09:34:07;49.6;43.4;57.5;;
65079;Laerm;52655;52.218;5.964;2023-02-03T09:36:09;48.1;42.3;56.8;;
65079;Laerm;52655;52.218;5.964;2023-02-03T09:38:07;56.2;43.2;72.2;;
65079;Laerm;52655;52.218;5.964;2023-02-03T09:40:08;47.4;41.5;61.6;;
65079;Laerm;52655;52.218;5.964;2023-02-03T09:42:48;53.2;42.8;67.3;;
65079;Laerm;52655;52.218;5.964;2023-02-03T09:44:42;52.7;43.8;66.1;;
65079;Laerm;52655;52.218;5.964;2023-02-03T09:46:13;48.4;42.9;61.8;;
65079;Laerm;52655;52.218;5.964;2023-02-03T09:48:15;50.3;44.0;67.7;;
65079;Laerm;52655;52.218;5.964;2023-02-03T09:50:11;48.7;42.3;59.6;;
65079;Laerm;52655;52.218;5.964;2023-02-03T09:52:14;48.3;42.9;59.5;;
65079;Laerm;52655;52.218;5.964;2023-02-03T09:54:17;52.7;43.7;64.1;;
65079;Laerm;52655;52.218;5.964;2023-02-03T09:56:08;49.6;43.7;62.4;;
65079;Laerm;52655;52.218;5.964;2023-02-03T09:58:11;48.8;41.1;62.4;;
65079;Laerm;52655;52.218;5.964;2023-02-03T10:00:15;54.4;46.8;67.4;;
65079;Laerm;52655;52.218;5.964;2023-02-03T10:02:24;53.3;48.6;59.8;;
65079;Laerm;52655;52.218;5.964;2023-02-03T10:04:21;54.4;50.2;59.6;;
65079;Laerm;52655;52.218;5.964;2023-02-03T10:06:09;54.4;49.6;58.4;;
65079;Laerm;52655;52.218;5.964;2023-02-03T10:12:46;54.3;49.6;59.3;;
65079;Laerm;52655;52.218;5.964;2023-02-03T10:14:57;54.8;50.8;64.2;;
65079;Laerm;52655;52.218;5.964;2023-02-03T10:16:58;55.1;50.2;60.4;;
65079;Laerm;52655;52.218;5.964;2023-02-03T10:18:23;56.1;51.0;67.6;;
65079;Laerm;52655;52.218;5.964;2023-02-03T10:20:13;55.6;50.9;65.3;;
65079;Laerm;52655;52.218;5.964;2023-02-03T10:22:14;54.1;50.0;59.0;;
65079;Laerm;52655;52.218;5.964;2023-02-03T10:24:10;54.0;49.5;59.2;;
65079;Laerm;52655;52.218;5.964;2023-02-03T10:26:09;49.9;44.4;59.3;;
65079;Laerm;52655;52.218;5.964;2023-02-03T10:28:18;51.0;42.3;66.3;;
65079;Laerm;52655;52.218;5.964;2023-02-03T10:30:13;52.3;44.0;58.5;;
65079;Laerm;52655;52.218;5.964;2023-02-03T10:32:10;52.5;47.6;62.8;;
65079;Laerm;52655;52.218;5.964;2023-02-03T10:34:10;51.4;43.7;59.8;;
65079;Laerm;52655;52.218;5.964;2023-02-03T10:36:10;50.2;46.5;57.8;;
65079;Laerm;52655;52.218;5.964;2023-02-03T10:38:56;49.6;44.1;60.7;;
65079;Laerm;52655;52.218;5.964;2023-02-03T10:40:32;51.9;46.2;69.5;;
65079;Laerm;52655;52.218;5.964;2023-02-03T10:42:11;49.6;44.4;56.6;;
65079;Laerm;52655;52.218;5.964;2023-02-03T10:44:10;49.1;44.4;56.2;;
65079;Laerm;52655;52.218;5.964;2023-02-03T10:46:09;48.3;43.2;57.9;;
65079;Laerm;52655;52.218;5.964;2023-02-03T10:48:16;48.9;43.5;72.2;;
65079;Laerm;52655;52.218;5.964;2023-02-03T10:50:15;48.1;43.2;57.8;;
65079;Laerm;52655;52.218;5.964;2023-02-03T10:52:24;48.7;43.8;56.8;;
65079;Laerm;52655;52.218;5.964;2023-02-03T10:54:26;48.4;43.2;56.4;;
65079;Laerm;52655;52.218;5.964;2023-02-03T10:56:12;49.2;42.2;57.6;;
65079;Laerm;52655;52.218;5.964;2023-02-03T10:58:26;50.4;42.8;63.3;;
65079;Laerm;52655;52.218;5.964;2023-02-03T11:00:23;51.2;44.0;64.7;;
65079;Laerm;52655;52.218;5.964;2023-02-03T11:02:21;50.0;43.6;61.9;;
65079;Laerm;52655;52.218;5.964;2023-02-03T11:04:21;47.7;43.5;56.9;;
65079;Laerm;52655;52.218;5.964;2023-02-03T11:06:11;49.6;44.2;64.8;;
65079;Laerm;52655;52.218;5.964;2023-02-03T11:08:13;49.4;43.1;65.3;;
65079;Laerm;52655;52.218;5.964;2023-02-03T11:10:26;48.2;42.9;61.8;;
65079;Laerm;52655;52.218;5.964;2023-02-03T11:12:13;47.9;42.4;63.4;;
65079;Laerm;52655;52.218;5.964;2023-02-03T11:14:15;49.7;43.8;65.0;;
65079;Laerm;52655;52.218;5.964;2023-02-03T11:16:11;53.7;43.5;74.6;;
65079;Laerm;52655;52.218;5.964;2023-02-03T11:18:56;51.6;45.0;58.9;;
65079;Laerm;52655;52.218;5.964;2023-02-03T11:20:16;49.3;43.4;57.0;;
65079;Laerm;52655;52.218;5.964;2023-02-03T11:22:10;50.0;42.7;62.3;;
65079;Laerm;52655;52.218;5.964;2023-02-03T11:24:14;52.6;45.6;71.3;;
65079;Laerm;52655;52.218;5.964;2023-02-03T11:26:10;52.0;43.2;61.1;;
65079;Laerm;52655;52.218;5.964;2023-02-03T11:28:12;50.2;44.6;58.6;;
65079;Laerm;52655;52.218;5.964;2023-02-03T11:32:17;47.3;44.4;57.0;;
65079;Laerm;52655;52.218;5.964;2023-02-03T11:34:13;53.6;44.1;59.6;;
65079;Laerm;52655;52.218;5.964;2023-02-03T11:36:11;50.5;43.3;66.4;;
65079;Laerm;52655;52.218;5.964;2023-02-03T11:38:30;52.1;44.1;62.1;;
65079;Laerm;52655;52.218;5.964;2023-02-03T11:40:21;51.6;42.8;69.7;;
65079;Laerm;52655;52.218;5.964;2023-02-03T11:42:21;48.7;42.4;56.9;;
65079;Laerm;52655;52.218;5.964;2023-02-03T11:44:14;49.2;41.6;59.0;;
65079;Laerm;52655;52.218;5.964;2023-02-03T11:46:11;48.2;43.2;56.3;;
65079;Laerm;52655;52.218;5.964;2023-02-03T11:48:22;48.7;44.0;62.0;;
65079;Laerm;52655;52.218;5.964;2023-02-03T11:51:03;49.9;44.1;60.7;;